sensor_id;sensor_type;location;lat;lon;timestamp;P1;durP1;ratioP1;P2;durP2;ratioP2
54665;SDS011;40566;50.006;36.180;2023-08-30T00:00:14;15.57;;;4.90;;
54665;SDS011;40566;50.006;36.180;2023-08-30T00:05:17;10.57;;;4.70;;
54665;SDS011;40566;50.006;36.180;2023-08-30T00:10:18;12.32;;;4.63;;
54665;SDS011;40566;50.006;36.180;2023-08-30T00:15:19;13.23;;;4.78;;
54665;SDS011;40566;50.006;36.180;2023-08-30T00:20:20;14.52;;;4.88;;
54665;SDS011;40566;50.006;36.180;2023-08-30T00:25:21;11.85;;;5.00;;
54665;SDS011;40566;50.006;36.180;2023-08-30T00:30:21;10.82;;;4.75;;
54665;SDS011;40566;50.006;36.180;2023-08-30T00:35:22;16.60;;;4.95;;
54665;SDS011;40566;50.006;36.180;2023-08-30T00:40:23;14.27;;;5.07;;
54665;SDS011;40566;50.006;36.180;2023-08-30T00:45:25;12.48;;;4.75;;
54665;SDS011;40566;50.006;36.180;2023-08-30T00:50:26;12.32;;;5.07;;
54665;SDS011;40566;50.006;36.180;2023-08-30T00:55:27;13.30;;;5.15;;
54665;SDS011;40566;50.006;36.180;2023-08-30T01:00:29;13.18;;;5.03;;
54665;SDS011;40566;50.006;36.180;2023-08-30T01:05:31;15.70;;;5.03;;
54665;SDS011;40566;50.006;36.180;2023-08-30T01:10:35;13.50;;;5.47;;
54665;SDS011;40566;50.006;36.180;2023-08-30T01:15:45;14.60;;;4.95;;
54665;SDS011;40566;50.006;36.180;2023-08-30T01:20:48;14.90;;;5.18;;
54665;SDS011;40566;50.006;36.180;2023-08-30T01:31:23;14.88;;;5.32;;
54665;SDS011;40566;50.006;36.180;2023-08-30T01:36:26;11.93;;;5.65;;
54665;SDS011;40566;50.006;36.180;2023-08-30T01:41:27;18.10;;;5.88;;
54665;SDS011;40566;50.006;36.180;2023-08-30T01:46:30;19.05;;;7.03;;
54665;SDS011;40566;50.006;36.180;2023-08-30T01:51:33;24.88;;;8.00;;
54665;SDS011;40566;50.006;36.180;2023-08-30T01:56:34;21.38;;;7.78;;
54665;SDS011;40566;50.006;36.180;2023-08-30T02:01:34;16.38;;;6.43;;
54665;SDS011;40566;50.006;36.180;2023-08-30T02:06:54;17.25;;;6.18;;
54665;SDS011;40566;50.006;36.180;2023-08-30T02:12:00;14.02;;;5.82;;
54665;SDS011;40566;50.006;36.180;2023-08-30T02:17:07;15.82;;;6.07;;
54665;SDS011;40566;50.006;36.180;2023-08-30T02:22:08;16.92;;;5.75;;
54665;SDS011;40566;50.006;36.180;2023-08-30T02:27:09;15.50;;;5.43;;
54665;SDS011;40566;50.006;36.180;2023-08-30T02:32:10;16.30;;;5.38;;
54665;SDS011;40566;50.006;36.180;2023-08-30T02:37:11;15.35;;;5.07;;
54665;SDS011;40566;50.006;36.180;2023-08-30T02:42:11;15.18;;;5.10;;
54665;SDS011;40566;50.006;36.180;2023-08-30T02:47:12;14.38;;;5.38;;
54665;SDS011;40566;50.006;36.180;2023-08-30T02:52:12;17.25;;;5.32;;
54665;SDS011;40566;50.006;36.180;2023-08-30T02:57:13;15.88;;;5.38;;
54665;SDS011;40566;50.006;36.180;2023-08-30T03:02:14;15.00;;;5.22;;
54665;SDS011;40566;50.006;36.180;2023-08-30T03:07:14;17.58;;;5.70;;
54665;SDS011;40566;50.006;36.180;2023-08-30T03:12:15;13.95;;;4.90;;
54665;SDS011;40566;50.006;36.180;2023-08-30T03:17:15;16.00;;;5.75;;
54665;SDS011;40566;50.006;36.180;2023-08-30T03:22:16;18.95;;;6.00;;
54665;SDS011;40566;50.006;36.180;2023-08-30T03:27:16;12.50;;;5.82;;
54665;SDS011;40566;50.006;36.180;2023-08-30T03:32:19;15.95;;;5.47;;
54665;SDS011;40566;50.006;36.180;2023-08-30T03:37:20;14.77;;;5.88;;
54665;SDS011;40566;50.006;36.180;2023-08-30T03:42:21;12.23;;;5.75;;
54665;SDS011;40566;50.006;36.180;2023-08-30T03:47:21;14.15;;;6.00;;
54665;SDS011;40566;50.006;36.180;2023-08-30T03:52:22;13.07;;;5.97;;
54665;SDS011;40566;50.006;36.180;2023-08-30T03:57:22;17.67;;;6.43;;
54665;SDS011;40566;50.006;36.180;2023-08-30T04:02:23;17.83;;;6.07;;
54665;SDS011;40566;50.006;36.180;2023-08-30T04:07:23;17.30;;;5.85;;
54665;SDS011;40566;50.006;36.180;2023-08-30T04:12:24;25.05;;;7.25;;
54665;SDS011;40566;50.006;36.180;2023-08-30T04:17:24;22.42;;;7.22;;
54665;SDS011;40566;50.006;36.180;2023-08-30T04:22:25;20.13;;;6.70;;
54665;SDS011;40566;50.006;36.180;2023-08-30T04:27:26;21.80;;;6.00;;
54665;SDS011;40566;50.006;36.180;2023-08-30T04:32:26;18.95;;;6.65;;
54665;SDS011;40566;50.006;36.180;2023-08-30T04:37:29;16.63;;;6.20;;
54665;SDS011;40566;50.006;36.180;2023-08-30T04:42:30;17.73;;;6.15;;
54665;SDS011;40566;50.006;36.180;2023-08-30T04:47:31;49.10;;;7.13;;
54665;SDS011;40566;50.006;36.180;2023-08-30T04:52:32;15.57;;;6.47;;
54665;SDS011;40566;50.006;36.180;2023-08-30T04:57:33;18.63;;;5.28;;
54665;SDS011;40566;50.006;36.180;2023-08-30T05:02:33;21.70;;;5.40;;
54665;SDS011;40566;50.006;36.180;2023-08-30T05:07:34;29.48;;;6.07;;
54665;SDS011;40566;50.006;36.180;2023-08-30T05:12:35;12.65;;;5.00;;
54665;SDS011;40566;50.006;36.180;2023-08-30T05:17:36;16.42;;;5.30;;
54665;SDS011;40566;50.006;36.180;2023-08-30T05:22:36;13.77;;;4.80;;
54665;SDS011;40566;50.006;36.180;2023-08-30T05:27:37;16.83;;;5.20;;
54665;SDS011;40566;50.006;36.180;2023-08-30T05:32:37;13.15;;;5.10;;
54665;SDS011;40566;50.006;36.180;2023-08-30T05:37:38;21.85;;;5.20;;
54665;SDS011;40566;50.006;36.180;2023-08-30T05:42:38;16.88;;;5.32;;
54665;SDS011;40566;50.006;36.180;2023-08-30T05:47:39;19.45;;;5.07;;
54665;SDS011;40566;50.006;36.180;2023-08-30T05:52:40;18.15;;;5.90;;
54665;SDS011;40566;50.006;36.180;2023-08-30T05:57:41;23.63;;;6.03;;
54665;SDS011;40566;50.006;36.180;2023-08-30T06:02:42;12.15;;;4.88;;
54665;SDS011;40566;50.006;36.180;2023-08-30T06:07:42;18.83;;;5.57;;
54665;SDS011;40566;50.006;36.180;2023-08-30T06:12:43;15.63;;;5.32;;
54665;SDS011;40566;50.006;36.180;2023-08-30T06:17:43;14.25;;;5.15;;
54665;SDS011;40566;50.006;36.180;2023-08-30T06:22:44;18.50;;;6.05;;
54665;SDS011;40566;50.006;36.180;2023-08-30T06:27:54;11.57;;;4.72;;
54665;SDS011;40566;50.006;36.180;2023-08-30T06:32:57;16.17;;;5.10;;
54665;SDS011;40566;50.006;36.180;2023-08-30T06:37:58;13.95;;;5.47;;
54665;SDS011;40566;50.006;36.180;2023-08-30T06:42:59;18.65;;;5.68;;
54665;SDS011;40566;50.006;36.180;2023-08-30T06:47:59;15.32;;;5.78;;
54665;SDS011;40566;50.006;36.180;2023-08-30T06:53:00;11.93;;;5.13;;
54665;SDS011;40566;50.006;36.180;2023-08-30T06:58:01;16.13;;;4.85;;
54665;SDS011;40566;50.006;36.180;2023-08-30T07:03:03;15.13;;;4.88;;
54665;SDS011;40566;50.006;36.180;2023-08-30T07:08:04;14.80;;;4.95;;
54665;SDS011;40566;50.006;36.180;2023-08-30T07:13:04;19.58;;;5.32;;
54665;SDS011;40566;50.006;36.180;2023-08-30T07:18:10;15.63;;;5.20;;
54665;SDS011;40566;50.006;36.180;2023-08-30T07:23:11;14.07;;;5.38;;
54665;SDS011;40566;50.006;36.180;2023-08-30T07:28:11;16.60;;;5.15;;
54665;SDS011;40566;50.006;36.180;2023-08-30T07:33:12;13.60;;;5.18;;
54665;SDS011;40566;50.006;36.180;2023-08-30T07:38:12;13.05;;;4.88;;
54665;SDS011;40566;50.006;36.180;2023-08-30T07:43:13;19.85;;;5.28;;
54665;SDS011;40566;50.006;36.180;2023-08-30T07:48:13;16.45;;;5.15;;
54665;SDS011;40566;50.006;36.180;2023-08-30T07:53:14;12.45;;;4.63;;
54665;SDS011;40566;50.006;36.180;2023-08-30T07:58:14;18.15;;;5.50;;
54665;SDS011;40566;50.006;36.180;2023-08-30T08:03:15;14.63;;;5.15;;
54665;SDS011;40566;50.006;36.180;2023-08-30T08:08:15;17.33;;;4.53;;
54665;SDS011;40566;50.006;36.180;2023-08-30T08:13:17;11.98;;;4.88;;
54665;SDS011;40566;50.006;36.180;2023-08-30T08:18:17;14.50;;;4.88;;
54665;SDS011;40566;50.006;36.180;2023-08-30T08:23:18;11.95;;;5.00;;
54665;SDS011;40566;50.006;36.180;2023-08-30T08:28:18;13.05;;;4.43;;
54665;SDS011;40566;50.006;36.180;2023-08-30T08:33:19;11.80;;;5.55;;
54665;SDS011;40566;50.006;36.180;2023-08-30T08:38:23;14.75;;;4.95;;
54665;SDS011;40566;50.006;36.180;2023-08-30T08:43:23;14.52;;;5.50;;
54665;SDS011;40566;50.006;36.180;2023-08-30T08:48:24;12.55;;;5.28;;
54665;SDS011;40566;50.006;36.180;2023-08-30T08:53:28;10.45;;;4.53;;
54665;SDS011;40566;50.006;36.180;2023-08-30T08:58:29;13.50;;;5.00;;
54665;SDS011;40566;50.006;36.180;2023-08-30T09:03:30;12.60;;;5.97;;
54665;SDS011;40566;50.006;36.180;2023-08-30T09:08:33;13.85;;;4.65;;
54665;SDS011;40566;50.006;36.180;2023-08-30T09:13:34;13.88;;;5.75;;
54665;SDS011;40566;50.006;36.180;2023-08-30T09:31:06;12.68;;;4.95;;
54665;SDS011;40566;50.006;36.180;2023-08-30T09:36:10;11.63;;;5.05;;
54665;SDS011;40566;50.006;36.180;2023-08-30T09:41:11;13.10;;;4.75;;
54665;SDS011;40566;50.006;36.180;2023-08-30T09:46:12;11.52;;;4.80;;
54665;SDS011;40566;50.006;36.180;2023-08-30T09:51:13;13.98;;;5.00;;
54665;SDS011;40566;50.006;36.180;2023-08-30T09:56:15;11.30;;;4.50;;
54665;SDS011;40566;50.006;36.180;2023-08-30T10:01:18;13.10;;;4.90;;
54665;SDS011;40566;50.006;36.180;2023-08-30T10:06:18;14.30;;;4.88;;
54665;SDS011;40566;50.006;36.180;2023-08-30T10:11:19;8.90;;;4.97;;
54665;SDS011;40566;50.006;36.180;2023-08-30T10:16:22;12.15;;;5.32;;
54665;SDS011;40566;50.006;36.180;2023-08-30T10:21:24;19.65;;;5.22;;
54665;SDS011;40566;50.006;36.180;2023-08-30T10:26:26;9.65;;;4.68;;
54665;SDS011;40566;50.006;36.180;2023-08-30T10:31:29;9.32;;;4.30;;
54665;SDS011;40566;50.006;36.180;2023-08-30T10:36:30;11.25;;;4.97;;
54665;SDS011;40566;50.006;36.180;2023-08-30T10:41:31;11.77;;;4.82;;
54665;SDS011;40566;50.006;36.180;2023-08-30T10:46:32;37.15;;;5.70;;
54665;SDS011;40566;50.006;36.180;2023-08-30T10:51:39;13.20;;;5.40;;
54665;SDS011;40566;50.006;36.180;2023-08-30T10:56:47;11.02;;;4.85;;
54665;SDS011;40566;50.006;36.180;2023-08-30T11:01:50;14.43;;;4.60;;
54665;SDS011;40566;50.006;36.180;2023-08-30T11:06:52;10.10;;;4.45;;
54665;SDS011;40566;50.006;36.180;2023-08-30T11:11:52;18.45;;;4.85;;
54665;SDS011;40566;50.006;36.180;2023-08-30T11:16:53;9.65;;;4.38;;
54665;SDS011;40566;50.006;36.180;2023-08-30T11:21:55;11.15;;;4.60;;
54665;SDS011;40566;50.006;36.180;2023-08-30T11:26:55;12.23;;;4.63;;
54665;SDS011;40566;50.006;36.180;2023-08-30T11:31:56;12.38;;;4.80;;
54665;SDS011;40566;50.006;36.180;2023-08-30T11:36:57;10.13;;;3.97;;
54665;SDS011;40566;50.006;36.180;2023-08-30T11:41:59;15.45;;;4.47;;
54665;SDS011;40566;50.006;36.180;2023-08-30T11:46:59;10.75;;;4.30;;
54665;SDS011;40566;50.006;36.180;2023-08-30T11:52:00;11.07;;;4.18;;
54665;SDS011;40566;50.006;36.180;2023-08-30T11:57:03;11.35;;;4.22;;
54665;SDS011;40566;50.006;36.180;2023-08-30T12:02:04;10.48;;;4.25;;
54665;SDS011;40566;50.006;36.180;2023-08-30T12:07:07;9.70;;;4.57;;
54665;SDS011;40566;50.006;36.180;2023-08-30T12:12:11;9.95;;;4.53;;
54665;SDS011;40566;50.006;36.180;2023-08-30T12:17:13;11.45;;;4.28;;
54665;SDS011;40566;50.006;36.180;2023-08-30T12:22:14;10.48;;;4.65;;
54665;SDS011;40566;50.006;36.180;2023-08-30T12:27:14;15.13;;;5.38;;
54665;SDS011;40566;50.006;36.180;2023-08-30T12:32:15;10.18;;;4.20;;
54665;SDS011;40566;50.006;36.180;2023-08-30T12:37:16;9.45;;;3.92;;
54665;SDS011;40566;50.006;36.180;2023-08-30T12:42:17;47.05;;;5.40;;
54665;SDS011;40566;50.006;36.180;2023-08-30T12:47:17;9.50;;;3.60;;
54665;SDS011;40566;50.006;36.180;2023-08-30T12:52:18;11.45;;;3.85;;
54665;SDS011;40566;50.006;36.180;2023-08-30T12:57:18;8.48;;;3.42;;
54665;SDS011;40566;50.006;36.180;2023-08-30T13:02:19;29.73;;;4.53;;
54665;SDS011;40566;50.006;36.180;2023-08-30T13:07:19;12.80;;;4.10;;
54665;SDS011;40566;50.006;36.180;2023-08-30T13:12:20;7.10;;;3.28;;
54665;SDS011;40566;50.006;36.180;2023-08-30T13:17:21;9.73;;;3.70;;
54665;SDS011;40566;50.006;36.180;2023-08-30T13:22:21;9.40;;;3.58;;
54665;SDS011;40566;50.006;36.180;2023-08-30T13:27:22;16.60;;;3.60;;
54665;SDS011;40566;50.006;36.180;2023-08-30T13:32:22;14.05;;;3.85;;
54665;SDS011;40566;50.006;36.180;2023-08-30T13:37:23;15.07;;;3.53;;
54665;SDS011;40566;50.006;36.180;2023-08-30T13:42:24;10.40;;;4.25;;
54665;SDS011;40566;50.006;36.180;2023-08-30T13:47:24;12.15;;;3.60;;
54665;SDS011;40566;50.006;36.180;2023-08-30T13:52:25;8.57;;;3.25;;
54665;SDS011;40566;50.006;36.180;2023-08-30T13:57:26;11.10;;;3.70;;
54665;SDS011;40566;50.006;36.180;2023-08-30T14:02:26;18.58;;;3.42;;
54665;SDS011;40566;50.006;36.180;2023-08-30T14:07:27;9.70;;;3.55;;
54665;SDS011;40566;50.006;36.180;2023-08-30T14:12:28;9.00;;;3.50;;
54665;SDS011;40566;50.006;36.180;2023-08-30T14:17:28;14.70;;;3.50;;
54665;SDS011;40566;50.006;36.180;2023-08-30T14:22:29;9.20;;;3.20;;
54665;SDS011;40566;50.006;36.180;2023-08-30T14:27:30;11.95;;;3.75;;
54665;SDS011;40566;50.006;36.180;2023-08-30T14:32:30;15.82;;;3.60;;
54665;SDS011;40566;50.006;36.180;2023-08-30T14:37:31;10.20;;;3.40;;
54665;SDS011;40566;50.006;36.180;2023-08-30T14:42:31;11.18;;;3.45;;
54665;SDS011;40566;50.006;36.180;2023-08-30T14:47:33;14.48;;;3.58;;
54665;SDS011;40566;50.006;36.180;2023-08-30T14:52:34;12.75;;;4.20;;
54665;SDS011;40566;50.006;36.180;2023-08-30T14:57:34;8.82;;;3.45;;
54665;SDS011;40566;50.006;36.180;2023-08-30T15:02:35;8.90;;;4.00;;
54665;SDS011;40566;50.006;36.180;2023-08-30T15:07:36;11.85;;;3.85;;
54665;SDS011;40566;50.006;36.180;2023-08-30T15:12:37;11.35;;;3.40;;
54665;SDS011;40566;50.006;36.180;2023-08-30T15:17:38;13.65;;;4.00;;
54665;SDS011;40566;50.006;36.180;2023-08-30T15:22:39;18.30;;;3.80;;
54665;SDS011;40566;50.006;36.180;2023-08-30T15:27:39;11.82;;;4.22;;
54665;SDS011;40566;50.006;36.180;2023-08-30T15:32:40;18.98;;;5.05;;
54665;SDS011;40566;50.006;36.180;2023-08-30T15:37:41;21.52;;;5.07;;
54665;SDS011;40566;50.006;36.180;2023-08-30T15:42:42;17.67;;;5.50;;
54665;SDS011;40566;50.006;36.180;2023-08-30T15:47:43;17.55;;;6.10;;
54665;SDS011;40566;50.006;36.180;2023-08-30T15:52:43;12.90;;;4.30;;
54665;SDS011;40566;50.006;36.180;2023-08-30T15:57:44;17.65;;;4.70;;
54665;SDS011;40566;50.006;36.180;2023-08-30T16:02:45;19.67;;;4.85;;
54665;SDS011;40566;50.006;36.180;2023-08-30T16:07:45;27.15;;;5.20;;
54665;SDS011;40566;50.006;36.180;2023-08-30T16:12:46;17.25;;;4.72;;
54665;SDS011;40566;50.006;36.180;2023-08-30T16:17:49;10.13;;;4.13;;
54665;SDS011;40566;50.006;36.180;2023-08-30T16:22:49;28.88;;;5.32;;
54665;SDS011;40566;50.006;36.180;2023-08-30T16:27:50;38.28;;;13.32;;
54665;SDS011;40566;50.006;36.180;2023-08-30T16:32:51;50.90;;;18.00;;
54665;SDS011;40566;50.006;36.180;2023-08-30T16:37:51;30.33;;;12.60;;
54665;SDS011;40566;50.006;36.180;2023-08-30T16:42:53;61.35;;;14.98;;
54665;SDS011;40566;50.006;36.180;2023-08-30T16:47:54;51.50;;;11.32;;
54665;SDS011;40566;50.006;36.180;2023-08-30T16:52:54;41.13;;;18.10;;
54665;SDS011;40566;50.006;36.180;2023-08-30T16:57:55;45.58;;;16.63;;
54665;SDS011;40566;50.006;36.180;2023-08-30T17:02:56;33.78;;;13.52;;
54665;SDS011;40566;50.006;36.180;2023-08-30T17:07:57;45.03;;;10.68;;
54665;SDS011;40566;50.006;36.180;2023-08-30T17:12:58;27.98;;;8.57;;
54665;SDS011;40566;50.006;36.180;2023-08-30T17:17:58;19.67;;;6.55;;
54665;SDS011;40566;50.006;36.180;2023-08-30T17:22:59;16.63;;;6.18;;
54665;SDS011;40566;50.006;36.180;2023-08-30T17:27:59;21.95;;;6.85;;
54665;SDS011;40566;50.006;36.180;2023-08-30T17:33:00;17.77;;;7.13;;
54665;SDS011;40566;50.006;36.180;2023-08-30T17:38:01;16.75;;;6.47;;
54665;SDS011;40566;50.006;36.180;2023-08-30T17:43:01;15.77;;;6.25;;
54665;SDS011;40566;50.006;36.180;2023-08-30T17:48:03;14.50;;;6.13;;
54665;SDS011;40566;50.006;36.180;2023-08-30T17:53:04;18.00;;;5.82;;
54665;SDS011;40566;50.006;36.180;2023-08-30T17:58:06;20.80;;;7.30;;
54665;SDS011;40566;50.006;36.180;2023-08-30T18:03:07;21.17;;;6.93;;
54665;SDS011;40566;50.006;36.180;2023-08-30T18:08:11;21.83;;;6.75;;
54665;SDS011;40566;50.006;36.180;2023-08-30T18:13:12;17.67;;;6.80;;
54665;SDS011;40566;50.006;36.180;2023-08-30T18:18:13;14.95;;;6.55;;
54665;SDS011;40566;50.006;36.180;2023-08-30T18:23:14;20.08;;;7.18;;
54665;SDS011;40566;50.006;36.180;2023-08-30T18:28:15;16.33;;;6.70;;
54665;SDS011;40566;50.006;36.180;2023-08-30T18:33:16;22.30;;;6.75;;
54665;SDS011;40566;50.006;36.180;2023-08-30T18:38:16;19.25;;;7.03;;
54665;SDS011;40566;50.006;36.180;2023-08-30T18:43:17;20.52;;;7.00;;
54665;SDS011;40566;50.006;36.180;2023-08-30T18:48:18;15.52;;;6.32;;
54665;SDS011;40566;50.006;36.180;2023-08-30T18:53:19;16.75;;;6.70;;
54665;SDS011;40566;50.006;36.180;2023-08-30T18:58:19;16.23;;;7.25;;
54665;SDS011;40566;50.006;36.180;2023-08-30T19:03:20;28.92;;;7.32;;
54665;SDS011;40566;50.006;36.180;2023-08-30T19:08:22;22.58;;;7.40;;
54665;SDS011;40566;50.006;36.180;2023-08-30T19:13:23;17.35;;;7.20;;
54665;SDS011;40566;50.006;36.180;2023-08-30T19:18:23;18.17;;;7.88;;
54665;SDS011;40566;50.006;36.180;2023-08-30T19:23:25;20.65;;;7.93;;
54665;SDS011;40566;50.006;36.180;2023-08-30T19:28:25;21.13;;;8.32;;
54665;SDS011;40566;50.006;36.180;2023-08-30T19:33:26;23.17;;;8.57;;
54665;SDS011;40566;50.006;36.180;2023-08-30T19:38:27;23.95;;;8.70;;
54665;SDS011;40566;50.006;36.180;2023-08-30T19:43:27;20.48;;;9.00;;
54665;SDS011;40566;50.006;36.180;2023-08-30T19:48:28;17.77;;;8.30;;
54665;SDS011;40566;50.006;36.180;2023-08-30T19:53:29;20.75;;;9.27;;
54665;SDS011;40566;50.006;36.180;2023-08-30T19:58:30;19.92;;;9.90;;
54665;SDS011;40566;50.006;36.180;2023-08-30T20:03:31;32.35;;;15.40;;
54665;SDS011;40566;50.006;36.180;2023-08-30T20:08:32;34.10;;;14.73;;
54665;SDS011;40566;50.006;36.180;2023-08-30T20:13:33;32.33;;;15.88;;
54665;SDS011;40566;50.006;36.180;2023-08-30T20:18:34;38.67;;;17.58;;
54665;SDS011;40566;50.006;36.180;2023-08-30T20:23:36;24.48;;;12.68;;
54665;SDS011;40566;50.006;36.180;2023-08-30T20:28:36;25.45;;;11.45;;
54665;SDS011;40566;50.006;36.180;2023-08-30T20:33:37;23.33;;;10.88;;
54665;SDS011;40566;50.006;36.180;2023-08-30T20:38:38;27.52;;;10.48;;
54665;SDS011;40566;50.006;36.180;2023-08-30T20:43:38;18.98;;;9.43;;
54665;SDS011;40566;50.006;36.180;2023-08-30T20:48:39;26.05;;;9.75;;
54665;SDS011;40566;50.006;36.180;2023-08-30T20:53:39;24.92;;;10.05;;
54665;SDS011;40566;50.006;36.180;2023-08-30T20:58:41;22.38;;;9.63;;
54665;SDS011;40566;50.006;36.180;2023-08-30T21:03:47;19.30;;;9.17;;
54665;SDS011;40566;50.006;36.180;2023-08-30T21:08:49;23.83;;;10.07;;
54665;SDS011;40566;50.006;36.180;2023-08-30T21:13:50;20.60;;;10.02;;
54665;SDS011;40566;50.006;36.180;2023-08-30T21:18:50;22.40;;;9.52;;
54665;SDS011;40566;50.006;36.180;2023-08-30T21:23:51;22.52;;;9.82;;
54665;SDS011;40566;50.006;36.180;2023-08-30T21:28:51;26.70;;;10.00;;
54665;SDS011;40566;50.006;36.180;2023-08-30T21:33:52;25.83;;;11.30;;
54665;SDS011;40566;50.006;36.180;2023-08-30T21:38:54;23.83;;;10.50;;
54665;SDS011;40566;50.006;36.180;2023-08-30T21:43:55;20.45;;;9.82;;
54665;SDS011;40566;50.006;36.180;2023-08-30T21:48:58;22.35;;;11.27;;
54665;SDS011;40566;50.006;36.180;2023-08-30T21:53:59;23.73;;;11.27;;
54665;SDS011;40566;50.006;36.180;2023-08-30T21:58:59;22.67;;;11.05;;
54665;SDS011;40566;50.006;36.180;2023-08-30T22:04:00;25.30;;;10.68;;
54665;SDS011;40566;50.006;36.180;2023-08-30T22:09:03;25.20;;;10.52;;
54665;SDS011;40566;50.006;36.180;2023-08-30T22:14:04;25.65;;;10.70;;
54665;SDS011;40566;50.006;36.180;2023-08-30T22:19:06;23.33;;;10.88;;
54665;SDS011;40566;50.006;36.180;2023-08-30T22:24:07;23.33;;;10.85;;
54665;SDS011;40566;50.006;36.180;2023-08-30T22:29:08;20.70;;;10.43;;
54665;SDS011;40566;50.006;36.180;2023-08-30T22:34:09;22.05;;;11.07;;
54665;SDS011;40566;50.006;36.180;2023-08-30T22:39:09;24.95;;;11.48;;
54665;SDS011;40566;50.006;36.180;2023-08-30T22:44:11;23.42;;;11.38;;
54665;SDS011;40566;50.006;36.180;2023-08-30T22:49:11;28.63;;;12.32;;
54665;SDS011;40566;50.006;36.180;2023-08-30T22:54:12;26.55;;;11.98;;
54665;SDS011;40566;50.006;36.180;2023-08-30T22:59:15;24.38;;;11.30;;
54665;SDS011;40566;50.006;36.180;2023-08-30T23:04:16;23.27;;;10.93;;
54665;SDS011;40566;50.006;36.180;2023-08-30T23:09:16;26.70;;;10.80;;
54665;SDS011;40566;50.006;36.180;2023-08-30T23:14:18;24.08;;;10.73;;
54665;SDS011;40566;50.006;36.180;2023-08-30T23:19:21;30.00;;;10.75;;
54665;SDS011;40566;50.006;36.180;2023-08-30T23:24:21;21.50;;;9.88;;
54665;SDS011;40566;50.006;36.180;2023-08-30T23:29:22;20.50;;;9.75;;
54665;SDS011;40566;50.006;36.180;2023-08-30T23:34:26;18.55;;;10.18;;
54665;SDS011;40566;50.006;36.180;2023-08-30T23:39:27;18.75;;;9.95;;
54665;SDS011;40566;50.006;36.180;2023-08-30T23:44:27;25.88;;;10.40;;
54665;SDS011;40566;50.006;36.180;2023-08-30T23:49:28;19.83;;;9.82;;
54665;SDS011;40566;50.006;36.180;2023-08-30T23:54:29;23.48;;;10.40;;
54665;SDS011;40566;50.006;36.180;2023-08-30T23:59:30;19.52;;;9.40;;
